sensor_id;sensor_type;location;lat;lon;timestamp;P1;durP1;ratioP1;P2;durP2;ratioP2
74243;SDS011;62600;55.732;37.662;2022-10-16T00:00:33;6.97;;;3.20;;
74243;SDS011;62600;55.732;37.662;2022-10-16T00:02:05;5.72;;;3.05;;
74243;SDS011;62600;55.732;37.662;2022-10-16T00:03:36;6.70;;;3.30;;
74243;SDS011;62600;55.732;37.662;2022-10-16T00:05:07;5.55;;;3.33;;
74243;SDS011;62600;55.732;37.662;2022-10-16T00:06:37;9.70;;;3.35;;
74243;SDS011;62600;55.732;37.662;2022-10-16T00:08:08;9.02;;;3.35;;
74243;SDS011;62600;55.732;37.662;2022-10-16T00:09:41;5.13;;;2.75;;
74243;SDS011;62600;55.732;37.662;2022-10-16T00:11:13;5.82;;;3.15;;
74243;SDS011;62600;55.732;37.662;2022-10-16T00:12:45;7.25;;;4.20;;
74243;SDS011;62600;55.732;37.662;2022-10-16T00:14:16;7.35;;;4.32;;
74243;SDS011;62600;55.732;37.662;2022-10-16T00:15:46;4.93;;;2.92;;
74243;SDS011;62600;55.732;37.662;2022-10-16T00:17:17;5.88;;;3.05;;
74243;SDS011;62600;55.732;37.662;2022-10-16T00:18:47;5.55;;;3.85;;
74243;SDS011;62600;55.732;37.662;2022-10-16T00:20:18;4.40;;;3.40;;
74243;SDS011;62600;55.732;37.662;2022-10-16T00:21:48;7.85;;;3.78;;
74243;SDS011;62600;55.732;37.662;2022-10-16T00:23:19;5.90;;;3.25;;
74243;SDS011;62600;55.732;37.662;2022-10-16T00:24:50;5.05;;;2.95;;
74243;SDS011;62600;55.732;37.662;2022-10-16T00:26:20;6.97;;;3.05;;
74243;SDS011;62600;55.732;37.662;2022-10-16T00:27:51;7.80;;;3.38;;
74243;SDS011;62600;55.732;37.662;2022-10-16T00:29:21;4.90;;;2.72;;
74243;SDS011;62600;55.732;37.662;2022-10-16T00:30:52;7.07;;;3.35;;
74243;SDS011;62600;55.732;37.662;2022-10-16T00:32:23;5.72;;;3.13;;
74243;SDS011;62600;55.732;37.662;2022-10-16T00:33:53;6.57;;;3.20;;
74243;SDS011;62600;55.732;37.662;2022-10-16T00:35:24;6.32;;;3.05;;
74243;SDS011;62600;55.732;37.662;2022-10-16T00:36:54;8.43;;;3.80;;
74243;SDS011;62600;55.732;37.662;2022-10-16T00:38:25;8.73;;;2.90;;
74243;SDS011;62600;55.732;37.662;2022-10-16T00:39:55;8.32;;;3.10;;
74243;SDS011;62600;55.732;37.662;2022-10-16T00:41:26;8.77;;;3.38;;
74243;SDS011;62600;55.732;37.662;2022-10-16T00:42:57;7.10;;;3.45;;
74243;SDS011;62600;55.732;37.662;2022-10-16T00:47:57;4.18;;;3.20;;
74243;SDS011;62600;55.732;37.662;2022-10-16T00:49:28;10.38;;;3.50;;
74243;SDS011;62600;55.732;37.662;2022-10-16T00:50:59;6.13;;;3.20;;
74243;SDS011;62600;55.732;37.662;2022-10-16T00:52:30;19.05;;;4.00;;
74243;SDS011;62600;55.732;37.662;2022-10-16T00:54:01;8.20;;;3.08;;
74243;SDS011;62600;55.732;37.662;2022-10-16T00:55:34;7.13;;;4.00;;
74243;SDS011;62600;55.732;37.662;2022-10-16T00:57:05;6.63;;;2.97;;
74243;SDS011;62600;55.732;37.662;2022-10-16T00:58:37;5.28;;;3.15;;
74243;SDS011;62600;55.732;37.662;2022-10-16T01:00:08;5.47;;;3.38;;
74243;SDS011;62600;55.732;37.662;2022-10-16T01:01:42;8.35;;;3.38;;
74243;SDS011;62600;55.732;37.662;2022-10-16T01:05:12;5.53;;;3.58;;
74243;SDS011;62600;55.732;37.662;2022-10-16T01:08:25;6.25;;;3.35;;
74243;SDS011;62600;55.732;37.662;2022-10-16T01:10:10;7.10;;;3.03;;
74243;SDS011;62600;55.732;37.662;2022-10-16T01:13:55;7.85;;;3.10;;
74243;SDS011;62600;55.732;37.662;2022-10-16T01:15:34;4.43;;;2.90;;
74243;SDS011;62600;55.732;37.662;2022-10-16T01:17:15;6.97;;;2.95;;
74243;SDS011;62600;55.732;37.662;2022-10-16T01:18:53;8.65;;;3.42;;
74243;SDS011;62600;55.732;37.662;2022-10-16T01:20:29;6.65;;;3.00;;
74243;SDS011;62600;55.732;37.662;2022-10-16T01:22:02;6.72;;;2.90;;
74243;SDS011;62600;55.732;37.662;2022-10-16T01:25:24;8.25;;;3.92;;
74243;SDS011;62600;55.732;37.662;2022-10-16T01:29:03;6.40;;;3.13;;
74243;SDS011;62600;55.732;37.662;2022-10-16T01:30:37;4.90;;;3.20;;
74243;SDS011;62600;55.732;37.662;2022-10-16T01:32:16;5.10;;;3.72;;
74243;SDS011;62600;55.732;37.662;2022-10-16T01:34:13;6.65;;;3.28;;
74243;SDS011;62600;55.732;37.662;2022-10-16T01:35:52;5.28;;;3.17;;
74243;SDS011;62600;55.732;37.662;2022-10-16T01:37:28;5.30;;;3.17;;
74243;SDS011;62600;55.732;37.662;2022-10-16T01:39:03;5.00;;;2.85;;
74243;SDS011;62600;55.732;37.662;2022-10-16T01:40:37;5.70;;;3.35;;
74243;SDS011;62600;55.732;37.662;2022-10-16T01:42:14;8.32;;;3.38;;
74243;SDS011;62600;55.732;37.662;2022-10-16T01:43:49;5.85;;;3.30;;
74243;SDS011;62600;55.732;37.662;2022-10-16T01:45:28;5.20;;;3.47;;
74243;SDS011;62600;55.732;37.662;2022-10-16T01:47:01;6.45;;;3.17;;
74243;SDS011;62600;55.732;37.662;2022-10-16T01:48:32;7.45;;;3.72;;
74243;SDS011;62600;55.732;37.662;2022-10-16T01:50:04;6.93;;;3.60;;
74243;SDS011;62600;55.732;37.662;2022-10-16T01:51:36;6.10;;;3.08;;
74243;SDS011;62600;55.732;37.662;2022-10-16T01:53:08;6.15;;;3.38;;
74243;SDS011;62600;55.732;37.662;2022-10-16T01:54:43;8.48;;;4.00;;
74243;SDS011;62600;55.732;37.662;2022-10-16T01:56:17;8.93;;;3.33;;
74243;SDS011;62600;55.732;37.662;2022-10-16T01:57:52;7.40;;;3.30;;
74243;SDS011;62600;55.732;37.662;2022-10-16T01:59:24;7.43;;;3.17;;
74243;SDS011;62600;55.732;37.662;2022-10-16T02:00:57;7.20;;;3.35;;
74243;SDS011;62600;55.732;37.662;2022-10-16T02:02:28;7.20;;;3.55;;
74243;SDS011;62600;55.732;37.662;2022-10-16T02:04:02;5.72;;;3.35;;
74243;SDS011;62600;55.732;37.662;2022-10-16T02:05:52;4.80;;;3.15;;
74243;SDS011;62600;55.732;37.662;2022-10-16T02:07:25;9.05;;;3.28;;
74243;SDS011;62600;55.732;37.662;2022-10-16T02:08:55;5.57;;;2.95;;
74243;SDS011;62600;55.732;37.662;2022-10-16T02:10:26;7.75;;;3.28;;
74243;SDS011;62600;55.732;37.662;2022-10-16T02:12:02;7.78;;;3.42;;
74243;SDS011;62600;55.732;37.662;2022-10-16T02:13:40;8.00;;;3.42;;
74243;SDS011;62600;55.732;37.662;2022-10-16T02:15:15;6.07;;;3.42;;
74243;SDS011;62600;55.732;37.662;2022-10-16T02:16:45;6.57;;;3.17;;
74243;SDS011;62600;55.732;37.662;2022-10-16T02:18:16;8.18;;;3.50;;
74243;SDS011;62600;55.732;37.662;2022-10-16T02:19:47;8.98;;;3.35;;
74243;SDS011;62600;55.732;37.662;2022-10-16T02:21:29;5.72;;;3.22;;
74243;SDS011;62600;55.732;37.662;2022-10-16T02:23:09;4.88;;;3.13;;
74243;SDS011;62600;55.732;37.662;2022-10-16T02:25:06;6.25;;;3.15;;
74243;SDS011;62600;55.732;37.662;2022-10-16T02:28:19;6.57;;;3.30;;
74243;SDS011;62600;55.732;37.662;2022-10-16T02:29:58;7.28;;;3.67;;
74243;SDS011;62600;55.732;37.662;2022-10-16T02:31:38;5.13;;;2.97;;
74243;SDS011;62600;55.732;37.662;2022-10-16T02:33:14;6.60;;;3.30;;
74243;SDS011;62600;55.732;37.662;2022-10-16T02:34:47;4.68;;;3.38;;
74243;SDS011;62600;55.732;37.662;2022-10-16T02:36:19;6.68;;;3.30;;
74243;SDS011;62600;55.732;37.662;2022-10-16T02:37:50;6.25;;;3.20;;
74243;SDS011;62600;55.732;37.662;2022-10-16T02:39:21;5.40;;;3.15;;
74243;SDS011;62600;55.732;37.662;2022-10-16T02:40:52;6.43;;;3.47;;
74243;SDS011;62600;55.732;37.662;2022-10-16T02:42:27;4.57;;;3.10;;
74243;SDS011;62600;55.732;37.662;2022-10-16T02:43:59;6.88;;;3.45;;
74243;SDS011;62600;55.732;37.662;2022-10-16T02:45:30;5.45;;;3.53;;
74243;SDS011;62600;55.732;37.662;2022-10-16T02:47:01;6.85;;;3.33;;
74243;SDS011;62600;55.732;37.662;2022-10-16T02:48:31;4.43;;;2.97;;
74243;SDS011;62600;55.732;37.662;2022-10-16T02:50:02;7.60;;;3.10;;
74243;SDS011;62600;55.732;37.662;2022-10-16T02:51:33;5.80;;;3.70;;
74243;SDS011;62600;55.732;37.662;2022-10-16T02:53:04;9.82;;;3.50;;
74243;SDS011;62600;55.732;37.662;2022-10-16T02:54:34;7.07;;;3.40;;
74243;SDS011;62600;55.732;37.662;2022-10-16T02:56:05;4.80;;;3.10;;
74243;SDS011;62600;55.732;37.662;2022-10-16T02:57:35;5.72;;;2.88;;
74243;SDS011;62600;55.732;37.662;2022-10-16T02:59:07;6.45;;;2.83;;
74243;SDS011;62600;55.732;37.662;2022-10-16T03:00:37;3.95;;;2.95;;
74243;SDS011;62600;55.732;37.662;2022-10-16T03:02:08;6.97;;;3.60;;
74243;SDS011;62600;55.732;37.662;2022-10-16T03:03:38;6.85;;;3.40;;
74243;SDS011;62600;55.732;37.662;2022-10-16T03:05:09;6.30;;;3.30;;
74243;SDS011;62600;55.732;37.662;2022-10-16T03:06:40;5.95;;;3.30;;
74243;SDS011;62600;55.732;37.662;2022-10-16T03:08:11;6.18;;;3.95;;
74243;SDS011;62600;55.732;37.662;2022-10-16T03:09:42;7.63;;;3.08;;
74243;SDS011;62600;55.732;37.662;2022-10-16T03:11:13;7.20;;;3.50;;
74243;SDS011;62600;55.732;37.662;2022-10-16T03:12:43;4.50;;;3.22;;
74243;SDS011;62600;55.732;37.662;2022-10-16T03:14:13;14.77;;;4.40;;
74243;SDS011;62600;55.732;37.662;2022-10-16T03:15:44;7.38;;;3.33;;
74243;SDS011;62600;55.732;37.662;2022-10-16T03:17:14;6.32;;;3.33;;
74243;SDS011;62600;55.732;37.662;2022-10-16T03:18:49;5.43;;;3.20;;
74243;SDS011;62600;55.732;37.662;2022-10-16T03:20:20;4.80;;;3.45;;
74243;SDS011;62600;55.732;37.662;2022-10-16T03:21:50;5.55;;;3.42;;
74243;SDS011;62600;55.732;37.662;2022-10-16T03:23:21;6.00;;;2.92;;
74243;SDS011;62600;55.732;37.662;2022-10-16T03:24:51;3.78;;;3.38;;
74243;SDS011;62600;55.732;37.662;2022-10-16T03:26:22;6.40;;;3.15;;
74243;SDS011;62600;55.732;37.662;2022-10-16T03:27:52;7.22;;;3.35;;
74243;SDS011;62600;55.732;37.662;2022-10-16T03:29:23;6.03;;;3.63;;
74243;SDS011;62600;55.732;37.662;2022-10-16T03:30:53;4.45;;;3.10;;
74243;SDS011;62600;55.732;37.662;2022-10-16T03:32:24;5.35;;;3.50;;
74243;SDS011;62600;55.732;37.662;2022-10-16T03:33:55;4.95;;;3.70;;
74243;SDS011;62600;55.732;37.662;2022-10-16T03:35:26;4.80;;;3.28;;
74243;SDS011;62600;55.732;37.662;2022-10-16T03:36:56;5.60;;;3.40;;
74243;SDS011;62600;55.732;37.662;2022-10-16T03:38:26;5.32;;;3.17;;
74243;SDS011;62600;55.732;37.662;2022-10-16T03:39:57;5.75;;;3.38;;
74243;SDS011;62600;55.732;37.662;2022-10-16T03:41:27;7.53;;;3.90;;
74243;SDS011;62600;55.732;37.662;2022-10-16T03:42:58;5.57;;;2.97;;
74243;SDS011;62600;55.732;37.662;2022-10-16T03:44:29;4.38;;;3.17;;
74243;SDS011;62600;55.732;37.662;2022-10-16T03:45:59;6.72;;;3.70;;
74243;SDS011;62600;55.732;37.662;2022-10-16T03:47:30;6.18;;;3.50;;
74243;SDS011;62600;55.732;37.662;2022-10-16T03:49:02;6.18;;;3.17;;
74243;SDS011;62600;55.732;37.662;2022-10-16T03:50:33;5.63;;;3.15;;
74243;SDS011;62600;55.732;37.662;2022-10-16T03:52:03;9.30;;;3.90;;
74243;SDS011;62600;55.732;37.662;2022-10-16T03:53:34;6.82;;;3.30;;
74243;SDS011;62600;55.732;37.662;2022-10-16T03:55:04;4.55;;;3.10;;
74243;SDS011;62600;55.732;37.662;2022-10-16T03:56:35;6.90;;;3.92;;
74243;SDS011;62600;55.732;37.662;2022-10-16T03:58:06;6.03;;;3.58;;
74243;SDS011;62600;55.732;37.662;2022-10-16T03:59:36;10.13;;;3.60;;
74243;SDS011;62600;55.732;37.662;2022-10-16T04:01:07;7.32;;;3.47;;
74243;SDS011;62600;55.732;37.662;2022-10-16T04:02:37;8.32;;;3.70;;
74243;SDS011;62600;55.732;37.662;2022-10-16T04:04:08;5.93;;;3.38;;
74243;SDS011;62600;55.732;37.662;2022-10-16T04:05:39;7.68;;;3.17;;
74243;SDS011;62600;55.732;37.662;2022-10-16T04:07:09;5.65;;;3.47;;
74243;SDS011;62600;55.732;37.662;2022-10-16T04:08:42;6.22;;;3.53;;
74243;SDS011;62600;55.732;37.662;2022-10-16T04:10:13;9.48;;;3.55;;
74243;SDS011;62600;55.732;37.662;2022-10-16T04:11:43;5.78;;;3.05;;
74243;SDS011;62600;55.732;37.662;2022-10-16T04:13:14;7.63;;;3.20;;
74243;SDS011;62600;55.732;37.662;2022-10-16T04:14:44;5.28;;;2.85;;
74243;SDS011;62600;55.732;37.662;2022-10-16T04:16:15;7.32;;;3.35;;
74243;SDS011;62600;55.732;37.662;2022-10-16T04:17:45;7.35;;;3.85;;
74243;SDS011;62600;55.732;37.662;2022-10-16T04:19:16;6.55;;;3.08;;
74243;SDS011;62600;55.732;37.662;2022-10-16T04:20:46;7.60;;;3.60;;
74243;SDS011;62600;55.732;37.662;2022-10-16T04:22:17;8.65;;;3.25;;
74243;SDS011;62600;55.732;37.662;2022-10-16T04:23:47;7.35;;;3.42;;
74243;SDS011;62600;55.732;37.662;2022-10-16T04:25:19;7.22;;;3.63;;
74243;SDS011;62600;55.732;37.662;2022-10-16T04:26:49;6.82;;;3.38;;
74243;SDS011;62600;55.732;37.662;2022-10-16T04:28:20;5.82;;;3.17;;
74243;SDS011;62600;55.732;37.662;2022-10-16T04:29:50;8.35;;;3.50;;
74243;SDS011;62600;55.732;37.662;2022-10-16T04:31:21;6.10;;;3.33;;
74243;SDS011;62600;55.732;37.662;2022-10-16T04:32:52;8.77;;;3.63;;
74243;SDS011;62600;55.732;37.662;2022-10-16T04:34:22;6.28;;;3.47;;
74243;SDS011;62600;55.732;37.662;2022-10-16T04:35:56;6.45;;;4.05;;
74243;SDS011;62600;55.732;37.662;2022-10-16T04:37:28;7.13;;;3.88;;
74243;SDS011;62600;55.732;37.662;2022-10-16T04:38:58;6.15;;;3.30;;
74243;SDS011;62600;55.732;37.662;2022-10-16T04:40:29;9.07;;;3.83;;
74243;SDS011;62600;55.732;37.662;2022-10-16T04:42:02;5.22;;;3.25;;
74243;SDS011;62600;55.732;37.662;2022-10-16T04:43:33;8.43;;;3.88;;
74243;SDS011;62600;55.732;37.662;2022-10-16T04:45:05;7.00;;;3.33;;
74243;SDS011;62600;55.732;37.662;2022-10-16T04:46:36;8.15;;;3.70;;
74243;SDS011;62600;55.732;37.662;2022-10-16T04:48:06;6.32;;;3.85;;
74243;SDS011;62600;55.732;37.662;2022-10-16T04:49:37;5.18;;;3.65;;
74243;SDS011;62600;55.732;37.662;2022-10-16T04:51:07;9.10;;;3.70;;
74243;SDS011;62600;55.732;37.662;2022-10-16T04:52:38;7.05;;;3.53;;
74243;SDS011;62600;55.732;37.662;2022-10-16T04:54:09;10.13;;;3.40;;
74243;SDS011;62600;55.732;37.662;2022-10-16T04:55:40;6.05;;;3.17;;
74243;SDS011;62600;55.732;37.662;2022-10-16T04:57:12;8.13;;;3.20;;
74243;SDS011;62600;55.732;37.662;2022-10-16T04:58:42;7.63;;;3.00;;
74243;SDS011;62600;55.732;37.662;2022-10-16T05:00:13;6.32;;;3.90;;
74243;SDS011;62600;55.732;37.662;2022-10-16T05:01:43;8.60;;;3.33;;
74243;SDS011;62600;55.732;37.662;2022-10-16T05:03:14;7.10;;;3.30;;
74243;SDS011;62600;55.732;37.662;2022-10-16T05:04:45;7.65;;;3.45;;
74243;SDS011;62600;55.732;37.662;2022-10-16T05:06:15;8.25;;;3.42;;
74243;SDS011;62600;55.732;37.662;2022-10-16T05:07:46;7.13;;;3.28;;
74243;SDS011;62600;55.732;37.662;2022-10-16T05:09:17;7.40;;;4.00;;
74243;SDS011;62600;55.732;37.662;2022-10-16T05:10:47;5.00;;;3.47;;
74243;SDS011;62600;55.732;37.662;2022-10-16T05:12:18;9.65;;;3.90;;
74243;SDS011;62600;55.732;37.662;2022-10-16T05:13:48;7.38;;;3.55;;
74243;SDS011;62600;55.732;37.662;2022-10-16T05:15:19;10.05;;;3.70;;
74243;SDS011;62600;55.732;37.662;2022-10-16T05:16:49;5.70;;;3.75;;
74243;SDS011;62600;55.732;37.662;2022-10-16T05:18:20;7.18;;;3.28;;
74243;SDS011;62600;55.732;37.662;2022-10-16T05:19:50;6.93;;;3.53;;
74243;SDS011;62600;55.732;37.662;2022-10-16T05:21:21;5.32;;;3.67;;
74243;SDS011;62600;55.732;37.662;2022-10-16T05:22:52;7.50;;;3.97;;
74243;SDS011;62600;55.732;37.662;2022-10-16T05:24:22;5.97;;;3.78;;
74243;SDS011;62600;55.732;37.662;2022-10-16T05:25:56;6.95;;;3.75;;
74243;SDS011;62600;55.732;37.662;2022-10-16T05:27:28;8.93;;;4.00;;
74243;SDS011;62600;55.732;37.662;2022-10-16T05:28:58;9.35;;;4.22;;
74243;SDS011;62600;55.732;37.662;2022-10-16T05:30:29;5.40;;;3.55;;
74243;SDS011;62600;55.732;37.662;2022-10-16T05:31:59;6.20;;;3.83;;
74243;SDS011;62600;55.732;37.662;2022-10-16T05:33:30;7.03;;;3.90;;
74243;SDS011;62600;55.732;37.662;2022-10-16T05:35:00;6.35;;;4.20;;
74243;SDS011;62600;55.732;37.662;2022-10-16T05:36:30;8.45;;;3.83;;
74243;SDS011;62600;55.732;37.662;2022-10-16T05:38:01;8.30;;;4.18;;
74243;SDS011;62600;55.732;37.662;2022-10-16T05:39:31;7.47;;;4.22;;
74243;SDS011;62600;55.732;37.662;2022-10-16T05:41:02;9.60;;;4.28;;
74243;SDS011;62600;55.732;37.662;2022-10-16T05:42:34;6.35;;;3.88;;
74243;SDS011;62600;55.732;37.662;2022-10-16T05:44:04;7.80;;;4.25;;
74243;SDS011;62600;55.732;37.662;2022-10-16T05:45:35;7.40;;;4.05;;
74243;SDS011;62600;55.732;37.662;2022-10-16T05:47:06;11.55;;;4.60;;
74243;SDS011;62600;55.732;37.662;2022-10-16T05:48:36;7.05;;;4.07;;
74243;SDS011;62600;55.732;37.662;2022-10-16T05:50:07;8.82;;;4.78;;
74243;SDS011;62600;55.732;37.662;2022-10-16T05:51:38;7.68;;;4.10;;
74243;SDS011;62600;55.732;37.662;2022-10-16T05:53:08;7.38;;;4.20;;
74243;SDS011;62600;55.732;37.662;2022-10-16T05:54:39;9.93;;;4.60;;
74243;SDS011;62600;55.732;37.662;2022-10-16T05:56:10;7.88;;;4.65;;
74243;SDS011;62600;55.732;37.662;2022-10-16T05:57:42;6.55;;;4.15;;
74243;SDS011;62600;55.732;37.662;2022-10-16T05:59:12;7.60;;;4.47;;
74243;SDS011;62600;55.732;37.662;2022-10-16T06:00:43;8.77;;;4.25;;
74243;SDS011;62600;55.732;37.662;2022-10-16T06:02:13;8.68;;;4.63;;
74243;SDS011;62600;55.732;37.662;2022-10-16T06:03:44;7.05;;;4.45;;
74243;SDS011;62600;55.732;37.662;2022-10-16T06:05:15;8.48;;;5.03;;
74243;SDS011;62600;55.732;37.662;2022-10-16T06:06:45;13.27;;;4.72;;
74243;SDS011;62600;55.732;37.662;2022-10-16T06:08:16;7.05;;;4.22;;
74243;SDS011;62600;55.732;37.662;2022-10-16T06:09:50;7.43;;;4.78;;
74243;SDS011;62600;55.732;37.662;2022-10-16T06:11:23;9.63;;;4.68;;
74243;SDS011;62600;55.732;37.662;2022-10-16T06:12:58;7.07;;;4.43;;
74243;SDS011;62600;55.732;37.662;2022-10-16T06:14:28;10.90;;;4.72;;
74243;SDS011;62600;55.732;37.662;2022-10-16T06:15:59;9.02;;;5.03;;
74243;SDS011;62600;55.732;37.662;2022-10-16T06:17:30;9.38;;;4.65;;
74243;SDS011;62600;55.732;37.662;2022-10-16T06:19:01;8.43;;;4.57;;
74243;SDS011;62600;55.732;37.662;2022-10-16T06:20:34;12.00;;;4.50;;
74243;SDS011;62600;55.732;37.662;2022-10-16T06:22:06;9.30;;;5.20;;
74243;SDS011;62600;55.732;37.662;2022-10-16T06:23:36;12.13;;;5.13;;
74243;SDS011;62600;55.732;37.662;2022-10-16T06:25:07;16.77;;;5.32;;
74243;SDS011;62600;55.732;37.662;2022-10-16T06:26:38;10.90;;;5.03;;
74243;SDS011;62600;55.732;37.662;2022-10-16T06:28:08;8.85;;;4.72;;
74243;SDS011;62600;55.732;37.662;2022-10-16T06:29:39;7.88;;;4.93;;
74243;SDS011;62600;55.732;37.662;2022-10-16T06:31:10;9.20;;;4.72;;
74243;SDS011;62600;55.732;37.662;2022-10-16T06:32:41;11.25;;;5.03;;
74243;SDS011;62600;55.732;37.662;2022-10-16T06:34:11;8.10;;;5.10;;
74243;SDS011;62600;55.732;37.662;2022-10-16T06:35:42;8.63;;;4.88;;
74243;SDS011;62600;55.732;37.662;2022-10-16T06:37:12;8.93;;;4.90;;
74243;SDS011;62600;55.732;37.662;2022-10-16T06:38:43;8.23;;;4.72;;
74243;SDS011;62600;55.732;37.662;2022-10-16T06:40:14;15.20;;;5.10;;
74243;SDS011;62600;55.732;37.662;2022-10-16T06:41:44;7.93;;;4.72;;
74243;SDS011;62600;55.732;37.662;2022-10-16T06:43:15;9.23;;;5.13;;
74243;SDS011;62600;55.732;37.662;2022-10-16T06:44:45;10.55;;;5.10;;
74243;SDS011;62600;55.732;37.662;2022-10-16T06:46:17;7.28;;;5.00;;
74243;SDS011;62600;55.732;37.662;2022-10-16T06:47:49;10.40;;;5.20;;
74243;SDS011;62600;55.732;37.662;2022-10-16T06:49:20;9.30;;;5.30;;
74243;SDS011;62600;55.732;37.662;2022-10-16T06:52:33;8.23;;;4.88;;
74243;SDS011;62600;55.732;37.662;2022-10-16T06:54:04;13.90;;;5.13;;
74243;SDS011;62600;55.732;37.662;2022-10-16T06:55:34;8.95;;;4.97;;
74243;SDS011;62600;55.732;37.662;2022-10-16T06:57:05;13.25;;;5.18;;
74243;SDS011;62600;55.732;37.662;2022-10-16T06:58:35;10.65;;;5.10;;
74243;SDS011;62600;55.732;37.662;2022-10-16T07:00:06;11.30;;;5.47;;
74243;SDS011;62600;55.732;37.662;2022-10-16T07:01:37;11.43;;;6.32;;
74243;SDS011;62600;55.732;37.662;2022-10-16T07:03:07;9.32;;;5.35;;
74243;SDS011;62600;55.732;37.662;2022-10-16T07:04:38;9.90;;;5.40;;
74243;SDS011;62600;55.732;37.662;2022-10-16T07:06:09;10.93;;;5.78;;
74243;SDS011;62600;55.732;37.662;2022-10-16T07:07:41;8.60;;;5.15;;
74243;SDS011;62600;55.732;37.662;2022-10-16T07:09:11;13.52;;;5.97;;
74243;SDS011;62600;55.732;37.662;2022-10-16T07:10:42;9.50;;;4.68;;
74243;SDS011;62600;55.732;37.662;2022-10-16T07:12:13;8.73;;;4.20;;
74243;SDS011;62600;55.732;37.662;2022-10-16T07:13:44;12.85;;;5.32;;
74243;SDS011;62600;55.732;37.662;2022-10-16T07:15:15;11.70;;;5.32;;
74243;SDS011;62600;55.732;37.662;2022-10-16T07:16:45;10.40;;;5.05;;
74243;SDS011;62600;55.732;37.662;2022-10-16T07:18:16;15.20;;;6.88;;
74243;SDS011;62600;55.732;37.662;2022-10-16T07:19:47;13.18;;;4.78;;
74243;SDS011;62600;55.732;37.662;2022-10-16T07:21:21;9.25;;;5.18;;
74243;SDS011;62600;55.732;37.662;2022-10-16T07:22:52;14.25;;;5.43;;
74243;SDS011;62600;55.732;37.662;2022-10-16T07:24:22;8.88;;;4.82;;
74243;SDS011;62600;55.732;37.662;2022-10-16T07:25:53;9.18;;;4.38;;
74243;SDS011;62600;55.732;37.662;2022-10-16T07:27:25;9.60;;;4.72;;
74243;SDS011;62600;55.732;37.662;2022-10-16T07:28:56;9.85;;;4.88;;
74243;SDS011;62600;55.732;37.662;2022-10-16T07:30:27;10.55;;;5.00;;
74243;SDS011;62600;55.732;37.662;2022-10-16T07:31:57;11.38;;;4.97;;
74243;SDS011;62600;55.732;37.662;2022-10-16T07:33:28;7.93;;;4.40;;
74243;SDS011;62600;55.732;37.662;2022-10-16T07:34:59;13.65;;;4.82;;
74243;SDS011;62600;55.732;37.662;2022-10-16T07:36:29;10.75;;;4.55;;
74243;SDS011;62600;55.732;37.662;2022-10-16T07:38:00;10.63;;;4.32;;
74243;SDS011;62600;55.732;37.662;2022-10-16T07:39:30;7.50;;;4.30;;
74243;SDS011;62600;55.732;37.662;2022-10-16T07:41:02;8.18;;;4.20;;
74243;SDS011;62600;55.732;37.662;2022-10-16T07:42:34;9.25;;;4.25;;
74243;SDS011;62600;55.732;37.662;2022-10-16T07:44:04;9.55;;;4.82;;
74243;SDS011;62600;55.732;37.662;2022-10-16T07:45:34;7.00;;;3.97;;
74243;SDS011;62600;55.732;37.662;2022-10-16T07:47:05;11.32;;;4.38;;
74243;SDS011;62600;55.732;37.662;2022-10-16T07:48:36;9.30;;;4.47;;
74243;SDS011;62600;55.732;37.662;2022-10-16T07:50:07;10.63;;;4.68;;
74243;SDS011;62600;55.732;37.662;2022-10-16T07:51:37;12.52;;;4.78;;
74243;SDS011;62600;55.732;37.662;2022-10-16T07:53:09;9.23;;;4.47;;
74243;SDS011;62600;55.732;37.662;2022-10-16T07:54:40;13.95;;;4.70;;
74243;SDS011;62600;55.732;37.662;2022-10-16T07:56:11;12.15;;;4.57;;
74243;SDS011;62600;55.732;37.662;2022-10-16T07:57:41;10.50;;;5.25;;
74243;SDS011;62600;55.732;37.662;2022-10-16T07:59:12;11.05;;;4.93;;
74243;SDS011;62600;55.732;37.662;2022-10-16T08:00:42;10.80;;;4.40;;
74243;SDS011;62600;55.732;37.662;2022-10-16T08:02:13;12.68;;;5.03;;
74243;SDS011;62600;55.732;37.662;2022-10-16T08:03:44;10.27;;;4.88;;
74243;SDS011;62600;55.732;37.662;2022-10-16T08:05:16;12.48;;;4.43;;
74243;SDS011;62600;55.732;37.662;2022-10-16T08:06:46;12.10;;;4.72;;
74243;SDS011;62600;55.732;37.662;2022-10-16T08:08:17;10.73;;;4.55;;
74243;SDS011;62600;55.732;37.662;2022-10-16T08:09:49;11.43;;;4.30;;
74243;SDS011;62600;55.732;37.662;2022-10-16T08:11:21;10.07;;;4.90;;
74243;SDS011;62600;55.732;37.662;2022-10-16T08:12:52;12.77;;;4.10;;
74243;SDS011;62600;55.732;37.662;2022-10-16T08:14:23;8.02;;;4.35;;
74243;SDS011;62600;55.732;37.662;2022-10-16T08:15:54;10.13;;;4.70;;
74243;SDS011;62600;55.732;37.662;2022-10-16T08:17:25;8.93;;;4.18;;
74243;SDS011;62600;55.732;37.662;2022-10-16T08:18:55;11.02;;;4.50;;
74243;SDS011;62600;55.732;37.662;2022-10-16T08:20:26;9.27;;;4.13;;
74243;SDS011;62600;55.732;37.662;2022-10-16T08:21:58;8.05;;;4.35;;
74243;SDS011;62600;55.732;37.662;2022-10-16T08:23:29;10.95;;;4.25;;
74243;SDS011;62600;55.732;37.662;2022-10-16T08:24:59;11.90;;;5.45;;
74243;SDS011;62600;55.732;37.662;2022-10-16T08:26:29;11.30;;;4.82;;
74243;SDS011;62600;55.732;37.662;2022-10-16T08:28:00;9.23;;;4.47;;
74243;SDS011;62600;55.732;37.662;2022-10-16T08:29:30;7.20;;;4.20;;
74243;SDS011;62600;55.732;37.662;2022-10-16T08:31:11;9.20;;;4.15;;
74243;SDS011;62600;55.732;37.662;2022-10-16T08:32:43;6.68;;;4.15;;
74243;SDS011;62600;55.732;37.662;2022-10-16T08:34:14;10.35;;;4.07;;
74243;SDS011;62600;55.732;37.662;2022-10-16T08:35:50;6.72;;;4.00;;
74243;SDS011;62600;55.732;37.662;2022-10-16T08:37:23;8.75;;;4.22;;
74243;SDS011;62600;55.732;37.662;2022-10-16T08:38:53;7.50;;;4.18;;
74243;SDS011;62600;55.732;37.662;2022-10-16T08:40:27;6.65;;;3.67;;
74243;SDS011;62600;55.732;37.662;2022-10-16T08:42:28;8.13;;;3.63;;
74243;SDS011;62600;55.732;37.662;2022-10-16T08:46:04;9.98;;;4.35;;
74243;SDS011;62600;55.732;37.662;2022-10-16T08:49:33;9.07;;;3.55;;
74243;SDS011;62600;55.732;37.662;2022-10-16T08:51:04;8.32;;;3.15;;
74243;SDS011;62600;55.732;37.662;2022-10-16T08:52:38;12.63;;;5.07;;
74243;SDS011;62600;55.732;37.662;2022-10-16T08:54:16;7.82;;;3.47;;
74243;SDS011;62600;55.732;37.662;2022-10-16T08:55:56;5.13;;;3.47;;
74243;SDS011;62600;55.732;37.662;2022-10-16T08:57:28;7.60;;;3.58;;
74243;SDS011;62600;55.732;37.662;2022-10-16T08:59:01;12.27;;;4.22;;
74243;SDS011;62600;55.732;37.662;2022-10-16T09:00:34;7.25;;;4.07;;
74243;SDS011;62600;55.732;37.662;2022-10-16T09:02:13;6.45;;;3.67;;
74243;SDS011;62600;55.732;37.662;2022-10-16T09:12:44;4.78;;;2.63;;
74243;SDS011;62600;55.732;37.662;2022-10-16T09:14:54;8.98;;;3.60;;
74243;SDS011;62600;55.732;37.662;2022-10-16T09:16:53;6.95;;;3.35;;
74243;SDS011;62600;55.732;37.662;2022-10-16T09:18:38;10.95;;;3.20;;
74243;SDS011;62600;55.732;37.662;2022-10-16T09:22:16;6.68;;;3.13;;
74243;SDS011;62600;55.732;37.662;2022-10-16T09:25:20;6.38;;;3.03;;
74243;SDS011;62600;55.732;37.662;2022-10-16T09:26:51;11.63;;;3.47;;
74243;SDS011;62600;55.732;37.662;2022-10-16T09:28:22;12.20;;;3.17;;
74243;SDS011;62600;55.732;37.662;2022-10-16T09:29:53;6.07;;;3.58;;
74243;SDS011;62600;55.732;37.662;2022-10-16T09:31:23;6.32;;;2.78;;
74243;SDS011;62600;55.732;37.662;2022-10-16T09:32:54;10.43;;;3.50;;
74243;SDS011;62600;55.732;37.662;2022-10-16T09:34:30;9.73;;;3.20;;
74243;SDS011;62600;55.732;37.662;2022-10-16T09:36:03;6.93;;;3.20;;
74243;SDS011;62600;55.732;37.662;2022-10-16T09:37:36;10.65;;;3.60;;
74243;SDS011;62600;55.732;37.662;2022-10-16T09:39:10;7.43;;;3.03;;